Time;durP1;ratioP1;P1;durP2;ratioP2;P2;SDS_P1;SDS_P2;PMS_P1;PMS_P2;Temp;Humidity;BMP_temperature;BMP_pressure;BME280_temperature;BME280_humidity;BME280_pressure;Samples;Min_cycle;Max_cycle;Signal;HPM_P1;HPM_P2
2023/10/15 00:01:35;;;;;;;3.00;2.03;;;12.90;92.00;;;;;;10541486;28;20827;-78
2023/10/15 00:06:58;;;;;;;4.17;2.37;;;12.90;92.10;;;;;;10543130;28;20603;-79
2023/10/15 00:12:21;;;;;;;2.40;2.20;;;12.90;92.10;;;;;;10536836;28;20208;-79
2023/10/15 00:17:43;;;;;;;3.10;2.13;;;12.80;92.10;;;;;;10536392;28;20697;-79
2023/10/15 00:23:09;;;;;;;2.57;2.37;;;12.80;92.40;;;;;;10534474;28;20679;-79
2023/10/15 00:28:32;;;;;;;5.20;2.30;;;12.70;92.10;;;;;;10535507;28;20200;-78
2023/10/15 00:33:54;;;;;;;2.33;1.90;;;12.70;92.50;;;;;;10519565;28;20220;-79
2023/10/15 00:39:21;;;;;;;2.60;2.33;;;12.60;92.30;;;;;;10520229;28;20823;-79
2023/10/15 00:44:43;;;;;;;3.90;2.23;;;12.60;92.60;;;;;;10519787;28;20215;-79
2023/10/15 00:50:09;;;;;;;3.47;1.90;;;12.60;92.60;;;;;;10542305;28;20570;-79
2023/10/15 00:55:35;;;;;;;3.07;2.00;;;12.60;92.60;;;;;;10537607;28;20208;-79
2023/10/15 01:01:00;;;;;;;2.17;1.70;;;12.70;92.50;;;;;;10518672;28;20305;-79
2023/10/15 01:06:29;;;;;;;3.53;1.37;;;12.70;92.30;;;;;;10521119;28;20243;-79
2023/10/15 01:11:56;;;;;;;2.20;1.90;;;12.70;92.30;;;;;;10537868;28;20218;-79
2023/10/15 01:17:19;;;;;;;3.20;1.77;;;12.80;92.20;;;;;;10526051;28;20212;-79
2023/10/15 01:22:43;;;;;;;2.30;2.00;;;12.80;92.30;;;;;;10544767;28;20685;-79
2023/10/15 01:28:07;;;;;;;3.00;2.37;;;12.90;92.60;;;;;;10523634;28;20597;-79
2023/10/15 01:33:30;;;;;;;3.00;1.70;;;12.90;92.40;;;;;;10523389;28;20200;-79
2023/10/15 01:38:55;;;;;;;6.07;2.50;;;12.90;92.60;;;;;;10548210;28;20231;-79
2023/10/15 01:44:19;;;;;;;2.90;2.23;;;13.00;92.60;;;;;;10529800;28;20208;-79
2023/10/15 01:49:41;;;;;;;2.53;1.90;;;13.00;92.70;;;;;;10556809;22;20666;-77
2023/10/15 01:55:04;;;;;;;4.70;2.00;;;13.10;92.20;;;;;;10494780;28;20196;-77
2023/10/15 02:00:43;;;;;;;6.60;2.30;;;13.10;92.30;;;;;;10537998;28;20227;-77
2023/10/15 02:06:06;;;;;;;5.07;2.80;;;13.20;91.80;;;;;;10537842;28;20216;-77
2023/10/15 02:11:28;;;;;;;2.43;2.23;;;13.30;91.50;;;;;;10521580;28;20624;-77
2023/10/15 02:16:53;;;;;;;2.83;2.20;;;13.30;91.70;;;;;;10536763;28;20265;-77
2023/10/15 02:22:16;;;;;;;2.63;2.43;;;13.40;91.60;;;;;;10538083;28;20306;-77
2023/10/15 02:27:38;;;;;;;4.33;2.40;;;13.30;91.50;;;;;;10519424;28;20255;-78
2023/10/15 02:33:02;;;;;;;10.10;2.10;;;13.40;92.00;;;;;;10518704;28;20203;-78
2023/10/15 02:38:26;;;;;;;4.10;2.40;;;13.40;91.70;;;;;;10536172;28;20220;-78
2023/10/15 02:43:53;;;;;;;2.20;2.00;;;13.40;91.70;;;;;;10520760;28;20628;-77
2023/10/15 02:49:17;;;;;;;4.93;2.23;;;13.50;91.40;;;;;;10525717;28;20638;-77
2023/10/15 02:54:39;;;;;;;5.27;2.60;;;13.50;91.20;;;;;;10546957;28;20215;-78
2023/10/15 03:00:12;;;;;;;5.10;2.23;;;13.50;91.60;;;;;;10521236;28;20720;-78
2023/10/15 03:05:40;;;;;;;3.63;2.60;;;13.50;91.60;;;;;;10519076;28;20213;-77
2023/10/15 03:11:07;;;;;;;4.60;2.60;;;13.50;91.80;;;;;;10520516;28;20196;-77
2023/10/15 03:16:32;;;;;;;2.13;2.00;;;13.50;92.00;;;;;;10494260;28;20296;-77
2023/10/15 03:21:58;;;;;;;2.43;2.10;;;13.50;92.10;;;;;;10543910;28;20262;-77
2023/10/15 03:27:23;;;;;;;4.03;2.83;;;13.50;92.90;;;;;;10533952;28;20212;-77
2023/10/15 03:32:46;;;;;;;3.43;2.70;;;13.50;93.10;;;;;;10532357;28;20197;-77
2023/10/15 03:38:14;;;;;;;2.40;2.20;;;13.50;92.90;;;;;;10534033;28;20216;-77
2023/10/15 03:43:36;;;;;;;3.63;2.40;;;13.40;93.10;;;;;;10532154;28;20215;-77
2023/10/15 03:48:58;;;;;;;3.83;2.70;;;13.40;93.30;;;;;;10535338;28;20731;-77
2023/10/15 03:54:23;;;;;;;4.33;2.23;;;13.40;93.50;;;;;;10539658;28;20651;-77
2023/10/15 03:59:51;;;;;;;3.07;2.30;;;13.40;92.80;;;;;;10532453;28;20277;-77
2023/10/15 04:05:14;;;;;;;2.83;2.53;;;13.40;93.30;;;;;;10517550;28;20696;-77
2023/10/15 04:10:38;;;;;;;2.77;2.33;;;13.40;93.20;;;;;;10517313;28;20245;-77
2023/10/15 04:16:01;;;;;;;2.70;2.37;;;13.40;92.80;;;;;;10531889;28;20251;-78
2023/10/15 04:21:23;;;;;;;6.13;2.43;;;13.50;92.70;;;;;;10540688;28;20215;-77
2023/10/15 04:26:49;;;;;;;3.67;2.07;;;13.50;92.60;;;;;;10538058;28;20220;-78
2023/10/15 04:32:17;;;;;;;5.63;2.27;;;13.60;92.90;;;;;;10529555;28;20196;-77
2023/10/15 04:37:39;;;;;;;2.83;2.23;;;13.60;92.60;;;;;;10533079;28;20241;-78
2023/10/15 04:43:04;;;;;;;3.13;2.17;;;13.60;93.00;;;;;;10522124;28;20224;-77
2023/10/15 04:48:27;;;;;;;7.50;2.97;;;13.60;93.60;;;;;;10532661;28;20220;-77
2023/10/15 04:53:50;;;;;;;2.80;2.40;;;13.40;94.90;;;;;;10495868;28;20197;-78
2023/10/15 04:59:13;;;;;;;2.87;2.40;;;13.30;95.20;;;;;;10530777;28;20353;-77
2023/10/15 05:04:36;;;;;;;5.53;2.60;;;13.20;95.10;;;;;;10530136;28;20266;-77
2023/10/15 05:09:59;;;;;;;3.77;2.70;;;13.20;95.40;;;;;;10530247;28;20295;-78
2023/10/15 05:15:23;;;;;;;6.00;2.70;;;13.30;94.90;;;;;;10536712;28;20216;-77
2023/10/15 05:20:47;;;;;;;3.63;2.77;;;13.20;95.20;;;;;;10540420;28;20228;-77
2023/10/15 05:26:09;;;;;;;3.93;2.93;;;13.20;95.40;;;;;;10537708;28;20705;-78
2023/10/15 05:31:33;;;;;;;3.20;2.90;;;13.10;95.60;;;;;;10536395;28;20196;-78
2023/10/15 05:36:55;;;;;;;6.20;3.30;;;13.10;95.30;;;;;;10538933;28;20223;-77
2023/10/15 05:42:18;;;;;;;3.90;2.67;;;13.10;95.50;;;;;;10523866;28;20220;-77
2023/10/15 05:47:43;;;;;;;3.47;2.93;;;13.10;95.20;;;;;;10538097;28;20765;-78
2023/10/15 05:53:06;;;;;;;6.70;2.90;;;13.10;95.50;;;;;;10541576;28;20246;-78
2023/10/15 05:58:28;;;;;;;3.00;2.80;;;13.10;95.60;;;;;;10538075;28;20227;-77
2023/10/15 06:03:52;;;;;;;2.67;2.47;;;13.10;95.70;;;;;;10534361;28;20639;-77
2023/10/15 06:09:14;;;;;;;2.83;2.53;;;13.20;95.90;;;;;;10536633;28;20220;-78
2023/10/15 06:14:36;;;;;;;3.90;2.70;;;13.20;96.10;;;;;;10497479;28;20201;-77
2023/10/15 06:20:12;;;;;;;3.77;2.67;;;13.20;95.50;;;;;;10545182;28;20415;-77
2023/10/15 06:25:35;;;;;;;2.70;2.50;;;13.20;95.50;;;;;;10535637;28;20220;-77
2023/10/15 06:30:57;;;;;;;4.40;2.80;;;13.30;95.70;;;;;;10521134;28;20188;-78
2023/10/15 06:36:21;;;;;;;3.83;2.90;;;13.20;95.20;;;;;;10535826;28;20212;-78
2023/10/15 06:41:43;;;;;;;3.37;3.07;;;13.20;95.30;;;;;;10535853;28;20284;-78
2023/10/15 06:47:05;;;;;;;3.80;3.23;;;13.30;95.30;;;;;;10539602;28;20689;-78
2023/10/15 06:52:29;;;;;;;6.20;3.33;;;13.30;95.10;;;;;;10551524;28;20271;-77
2023/10/15 06:57:51;;;;;;;3.50;3.20;;;13.40;95.30;;;;;;10543155;28;20216;-77
2023/10/15 07:03:16;;;;;;;5.13;3.17;;;13.50;95.20;;;;;;10534898;28;20681;-77
2023/10/15 07:08:39;;;;;;;2.90;2.67;;;13.60;95.00;;;;;;10536713;28;20224;-77
2023/10/15 07:14:02;;;;;;;4.43;3.10;;;13.60;94.10;;;;;;10534651;28;20269;-77
2023/10/15 07:19:25;;;;;;;7.50;3.00;;;13.60;94.30;;;;;;10542019;28;20234;-78
2023/10/15 07:24:50;;;;;;;3.27;2.80;;;13.60;94.40;;;;;;10539749;28;20200;-77
2023/10/15 07:30:13;;;;;;;4.10;3.10;;;13.60;94.50;;;;;;10519540;28;20204;-77
2023/10/15 07:35:36;;;;;;;4.70;3.00;;;13.60;93.90;;;;;;10533246;28;20220;-77
2023/10/15 07:41:00;;;;;;;3.40;3.10;;;13.50;94.20;;;;;;10494860;28;20294;-76
2023/10/15 07:46:25;;;;;;;9.37;3.80;;;13.50;94.10;;;;;;10542210;22;20224;-77
2023/10/15 07:51:48;;;;;;;5.67;3.50;;;13.50;94.00;;;;;;10578401;28;20200;-79
2023/10/15 07:57:14;;;;;;;3.43;3.17;;;13.50;93.90;;;;;;10553733;28;20736;-79
2023/10/15 08:02:36;;;;;;;7.87;3.90;;;13.50;94.20;;;;;;10538970;28;20641;-79
2023/10/15 08:07:58;;;;;;;6.00;3.17;;;13.50;93.50;;;;;;10541056;28;20212;-79
2023/10/15 08:13:22;;;;;;;7.60;2.77;;;13.50;92.40;;;;;;10538736;28;20556;-78
2023/10/15 08:18:45;;;;;;;2.80;2.30;;;13.50;92.00;;;;;;10559525;28;20222;-78
2023/10/15 08:24:08;;;;;;;5.00;2.23;;;13.60;91.80;;;;;;10570154;28;20188;-78
2023/10/15 08:29:31;;;;;;;2.83;2.40;;;13.60;91.40;;;;;;10542242;28;20208;-80
2023/10/15 08:34:53;;;;;;;3.87;2.33;;;13.60;91.60;;;;;;10545392;28;20204;-79
2023/10/15 08:40:17;;;;;;;3.63;2.77;;;13.80;91.40;;;;;;10552235;28;20220;-80
2023/10/15 08:45:42;;;;;;;3.57;2.10;;;14.00;90.10;;;;;;10547981;27;20200;-80
2023/10/15 08:51:05;;;;;;;4.03;2.37;;;14.00;90.30;;;;;;10536966;28;20216;-80
2023/10/15 08:56:28;;;;;;;6.33;2.20;;;14.20;89.60;;;;;;10578802;28;20218;-80
2023/10/15 09:01:54;;;;;;;3.47;1.67;;;14.10;89.20;;;;;;10541314;28;20291;-80
2023/10/15 09:07:17;;;;;;;2.50;1.90;;;14.00;89.50;;;;;;10540309;28;20330;-80
2023/10/15 09:12:39;;;;;;;7.47;2.77;;;14.30;90.30;;;;;;10536068;28;20224;-80
2023/10/15 09:18:03;;;;;;;3.20;1.83;;;14.60;90.10;;;;;;10536874;28;20223;-79
2023/10/15 09:23:26;;;;;;;5.73;2.00;;;14.70;88.70;;;;;;10521447;28;20335;-80
2023/10/15 09:28:51;;;;;;;6.03;2.50;;;14.60;90.00;;;;;;10534478;28;20222;-79
2023/10/15 09:34:15;;;;;;;2.60;2.00;;;14.40;91.50;;;;;;10537730;28;20206;-80
2023/10/15 09:39:38;;;;;;;3.40;1.60;;;14.50;90.80;;;;;;10520422;28;20227;-80
2023/10/15 09:45:03;;;;;;;4.40;2.20;;;14.60;91.30;;;;;;10536784;28;20208;-80
2023/10/15 09:50:28;;;;;;;4.63;2.10;;;14.80;91.00;;;;;;10536702;28;20220;-79
2023/10/15 09:55:53;;;;;;;2.70;2.07;;;15.10;91.00;;;;;;10560642;28;20687;-77
2023/10/15 10:01:25;;;;;;;4.47;2.67;;;15.10;90.70;;;;;;10544723;28;20216;-80
2023/10/15 10:07:13;;;;;;;2.57;1.60;;;15.00;90.10;;;;;;10546536;28;20220;-80
2023/10/15 10:12:57;;;;;;;3.97;2.37;;;14.90;90.30;;;;;;10545593;28;20552;-80
2023/10/15 10:18:21;;;;;;;3.30;2.33;;;15.00;89.30;;;;;;10551901;28;20212;-79
2023/10/15 10:23:46;;;;;;;1.60;1.50;;;15.10;84.10;;;;;;10553552;28;20224;-80
2023/10/15 10:29:09;;;;;;;2.77;1.40;;;15.10;84.60;;;;;;10585706;28;20218;-80
2023/10/15 10:34:32;;;;;;;4.80;1.53;;;15.00;83.80;;;;;;10563059;28;20193;-80
2023/10/15 10:39:58;;;;;;;2.70;1.87;;;14.90;82.00;;;;;;10542059;28;20228;-80
2023/10/15 10:45:51;;;;;;;2.37;1.40;;;14.70;82.60;;;;;;10541712;28;20677;-80
2023/10/15 10:51:18;;;;;;;1.77;1.50;;;14.50;84.60;;;;;;10563037;28;20259;-79
2023/10/15 10:57:06;;;;;;;2.70;1.70;;;14.60;84.60;;;;;;10563466;28;20605;-80
2023/10/15 11:02:29;;;;;;;4.53;1.77;;;15.00;83.90;;;;;;10541688;28;20311;-79
2023/10/15 11:07:52;;;;;;;2.43;1.50;;;15.20;80.60;;;;;;10558712;28;20211;-80
2023/10/15 11:13:16;;;;;;;2.20;1.60;;;15.20;79.30;;;;;;10584232;28;20199;-80
2023/10/15 11:18:40;;;;;;;2.87;2.27;;;15.10;79.80;;;;;;10549382;28;20224;-80
2023/10/15 11:24:03;;;;;;;2.80;1.63;;;15.10;77.20;;;;;;10581229;28;20216;-80
2023/10/15 11:29:27;;;;;;;3.20;1.30;;;15.10;74.90;;;;;;10544376;28;20689;-80
2023/10/15 11:34:50;;;;;;;3.67;1.53;;;15.00;74.80;;;;;;10555690;28;20215;-80
2023/10/15 11:40:14;;;;;;;1.70;1.60;;;14.80;77.20;;;;;;10542486;28;20239;-79
2023/10/15 11:45:41;;;;;;;2.70;1.67;;;14.60;78.10;;;;;;10541300;28;20197;-80
2023/10/15 11:51:05;;;;;;;1.70;1.60;;;14.40;79.70;;;;;;10551603;28;20300;-80
2023/10/15 11:56:29;;;;;;;3.33;1.77;;;14.50;79.70;;;;;;10571955;28;20188;-80
2023/10/15 12:01:53;;;;;;;2.87;1.60;;;14.70;81.90;;;;;;10540792;28;20216;-80
2023/10/15 12:07:16;;;;;;;3.23;2.27;;;14.90;84.40;;;;;;10541925;28;20220;-80
2023/10/15 12:12:39;;;;;;;2.90;1.93;;;14.90;84.30;;;;;;10544657;28;20306;-80
2023/10/15 12:18:03;;;;;;;2.60;1.70;;;14.90;83.40;;;;;;10552322;28;20219;-80
2023/10/15 12:23:27;;;;;;;2.60;2.10;;;14.80;84.10;;;;;;10582028;28;20212;-80
2023/10/15 12:28:51;;;;;;;4.43;2.40;;;14.90;80.20;;;;;;10557062;28;20313;-80
2023/10/15 12:34:16;;;;;;;2.13;1.93;;;14.90;79.30;;;;;;10535793;28;20200;-79
2023/10/15 12:39:40;;;;;;;2.73;1.60;;;14.80;80.30;;;;;;10537861;28;20228;-80
2023/10/15 12:45:02;;;;;;;2.07;1.87;;;14.80;78.90;;;;;;10537976;28;20326;-80
2023/10/15 12:50:26;;;;;;;3.73;1.80;;;14.70;79.40;;;;;;10534412;28;20228;-79
2023/10/15 12:55:48;;;;;;;3.37;2.30;;;14.70;78.80;;;;;;10576227;28;20279;-80
2023/10/15 13:01:11;;;;;;;1.87;1.77;;;14.80;77.90;;;;;;10540804;28;20224;-80
2023/10/15 13:06:35;;;;;;;1.70;1.60;;;14.80;76.70;;;;;;10569923;28;20302;-79
2023/10/15 13:11:57;;;;;;;2.00;1.20;;;14.80;74.90;;;;;;10583948;28;20746;-80
2023/10/15 13:17:19;;;;;;;1.73;1.50;;;14.80;76.30;;;;;;10537518;28;20217;-80
2023/10/15 13:22:43;;;;;;;3.23;1.60;;;14.80;73.10;;;;;;10563273;28;20216;-79
2023/10/15 13:28:05;;;;;;;1.30;1.20;;;14.80;71.10;;;;;;10550860;28;20226;-79
2023/10/15 13:33:28;;;;;;;1.50;1.40;;;14.70;69.60;;;;;;10549043;28;20243;-80
2023/10/15 13:38:52;;;;;;;1.70;1.60;;;14.60;69.50;;;;;;10545272;28;20690;-80
2023/10/15 13:44:14;;;;;;;2.87;1.93;;;14.60;71.30;;;;;;10546667;28;20672;-79
2023/10/15 13:49:37;;;;;;;1.73;1.63;;;14.50;71.40;;;;;;10547106;28;20700;-80
2023/10/15 13:55:00;;;;;;;2.20;1.80;;;14.50;72.80;;;;;;10571369;28;20203;-78
2023/10/15 14:00:25;;;;;;;3.30;2.83;;;14.40;72.80;;;;;;10571764;28;20217;-80
2023/10/15 14:05:49;;;;;;;2.07;1.70;;;14.50;72.50;;;;;;10590648;28;20643;-80
2023/10/15 14:11:13;;;;;;;2.13;1.93;;;14.40;72.30;;;;;;10598669;28;20200;-78
2023/10/15 14:16:35;;;;;;;1.50;1.40;;;14.40;72.50;;;;;;10549350;28;20216;-80
2023/10/15 14:21:58;;;;;;;1.27;1.23;;;14.50;69.90;;;;;;10546134;28;20228;-80
2023/10/15 14:27:21;;;;;;;1.70;1.60;;;14.50;68.80;;;;;;10587258;28;20216;-79
2023/10/15 14:32:43;;;;;;;1.40;1.30;;;14.60;69.50;;;;;;10545211;28;20560;-80
2023/10/15 14:38:06;;;;;;;5.63;1.47;;;14.70;68.10;;;;;;10585403;28;20620;-80
2023/10/15 14:43:29;;;;;;;1.50;1.40;;;14.90;68.10;;;;;;10528143;28;20633;-80
2023/10/15 14:48:51;;;;;;;1.70;1.60;;;15.10;68.30;;;;;;10542191;28;20224;-80
2023/10/15 14:54:13;;;;;;;1.70;1.60;;;15.00;67.20;;;;;;10569380;28;20196;-80
2023/10/15 14:59:38;;;;;;;1.93;1.33;;;14.90;69.50;;;;;;10543243;28;20223;-79
2023/10/15 15:05:00;;;;;;;2.00;1.43;;;14.80;71.10;;;;;;10541622;28;20224;-79
2023/10/15 15:10:22;;;;;;;2.30;1.63;;;14.60;71.90;;;;;;10541279;28;20212;-76
2023/10/15 15:15:46;;;;;;;1.60;1.50;;;14.50;72.20;;;;;;10545239;28;20613;-78
2023/10/15 15:21:08;;;;;;;1.60;1.40;;;14.40;70.70;;;;;;10542876;28;20480;-80
2023/10/15 15:26:30;;;;;;;3.73;2.20;;;14.30;69.80;;;;;;10548040;28;20199;-80
2023/10/15 15:31:56;;;;;;;2.10;1.70;;;14.20;67.00;;;;;;10556603;28;20710;-80
2023/10/15 15:37:18;;;;;;;1.87;1.70;;;14.10;68.20;;;;;;10574210;28;20292;-80
2023/10/15 15:42:40;;;;;;;2.40;2.00;;;14.10;68.50;;;;;;10558777;28;20562;-80
2023/10/15 15:48:04;;;;;;;1.87;1.70;;;14.10;67.70;;;;;;10542795;28;20260;-80
2023/10/15 15:53:26;;;;;;;2.00;1.77;;;14.30;67.30;;;;;;10566319;28;20192;-80
2023/10/15 15:58:49;;;;;;;1.87;1.77;;;14.30;66.60;;;;;;10567983;28;20584;-80
2023/10/15 16:04:12;;;;;;;1.93;1.70;;;14.20;67.20;;;;;;10543180;28;20502;-80
2023/10/15 16:09:35;;;;;;;2.23;2.03;;;14.20;67.00;;;;;;10572802;28;20227;-80
2023/10/15 16:14:57;;;;;;;3.10;2.27;;;14.20;67.10;;;;;;10523456;28;20189;-80
2023/10/15 16:20:22;;;;;;;3.40;2.70;;;14.20;67.80;;;;;;10542394;28;20239;-79
2023/10/15 16:25:44;;;;;;;3.17;2.53;;;14.30;68.40;;;;;;10563590;28;20195;-79
2023/10/15 16:31:06;;;;;;;2.00;1.87;;;14.20;67.40;;;;;;10558523;28;20212;-80
2023/10/15 16:36:30;;;;;;;2.93;1.80;;;14.10;68.30;;;;;;10575664;28;20690;-80
2023/10/15 16:41:52;;;;;;;2.63;2.10;;;14.00;68.70;;;;;;10559978;28;20216;-79
2023/10/15 16:47:14;;;;;;;3.67;1.73;;;13.90;68.90;;;;;;10553754;28;20590;-80
2023/10/15 16:52:38;;;;;;;2.30;1.70;;;13.90;67.70;;;;;;10559561;28;20195;-80
2023/10/15 16:58:00;;;;;;;2.37;2.17;;;13.80;69.70;;;;;;10564179;28;20227;-80
2023/10/15 17:03:22;;;;;;;5.03;1.90;;;13.70;69.60;;;;;;10566889;28;20223;-78
2023/10/15 17:08:48;;;;;;;3.50;2.67;;;13.70;70.60;;;;;;10567278;28;20262;-80
2023/10/15 17:14:11;;;;;;;2.97;2.40;;;13.60;71.10;;;;;;10562388;28;20188;-80
2023/10/15 17:19:34;;;;;;;3.53;3.10;;;13.60;70.90;;;;;;10587983;28;20241;-79
2023/10/15 17:24:57;;;;;;;3.23;2.90;;;13.50;72.80;;;;;;10586321;28;20282;-80
2023/10/15 17:30:20;;;;;;;3.20;2.60;;;13.30;74.00;;;;;;10568583;28;20211;-79
2023/10/15 17:35:42;;;;;;;4.53;3.90;;;13.10;75.30;;;;;;10560443;28;20204;-80
2023/10/15 17:41:07;;;;;;;4.03;3.73;;;12.90;75.50;;;;;;10577019;28;20696;-79
2023/10/15 17:46:30;;;;;;;4.90;3.70;;;12.70;75.50;;;;;;10563659;28;20202;-77
2023/10/15 17:51:52;;;;;;;3.90;3.50;;;12.50;76.80;;;;;;10561354;28;20196;-80
2023/10/15 17:57:17;;;;;;;4.20;3.80;;;12.30;77.00;;;;;;10549228;28;20914;-77
2023/10/15 18:02:39;;;;;;;5.63;3.80;;;12.20;77.70;;;;;;10542641;28;20576;-78
2023/10/15 18:08:01;;;;;;;3.33;2.93;;;12.00;78.10;;;;;;10573201;28;20222;-77
2023/10/15 18:13:26;;;;;;;3.50;3.20;;;11.90;78.50;;;;;;10548547;28;20566;-77
2023/10/15 18:18:53;;;;;;;4.63;3.40;;;;;;;;;;10558187;28;20225;-78
2023/10/15 18:24:15;;;;;;;6.27;4.43;;;11.70;95.50;;;;;;10562005;28;20215;-78
2023/10/15 18:29:39;;;;;;;3.37;3.10;;;11.70;97.10;;;;;;10565611;28;20225;-77
2023/10/15 18:35:01;;;;;;;3.60;3.30;;;11.60;98.00;;;;;;10556423;28;20675;-78
2023/10/15 18:40:24;;;;;;;2.97;2.77;;;11.60;98.20;;;;;;10561287;28;20208;-77
2023/10/15 18:45:48;;;;;;;2.90;2.70;;;11.60;98.30;;;;;;10555850;28;20265;-76
2023/10/15 18:51:10;;;;;;;6.20;4.10;;;11.60;98.40;;;;;;10557110;28;20707;-78
2023/10/15 18:56:33;;;;;;;3.43;3.17;;;11.50;99.90;;;;;;10558662;28;20228;-79
2023/10/15 19:01:56;;;;;;;3.20;2.30;;;11.50;99.90;;;;;;10563994;28;20230;-79
2023/10/15 19:07:19;;;;;;;1.97;1.87;;;;;;;;;;10561878;28;20586;-79
2023/10/15 19:12:46;;;;;;;2.17;1.97;;;;;;;;;;10570713;28;20199;-79
2023/10/15 19:18:10;;;;;;;2.37;2.27;;;11.40;80.40;;;;;;10567027;28;20689;-78
2023/10/15 19:23:32;;;;;;;2.90;2.60;;;11.30;81.20;;;;;;10567117;28;20228;-78
2023/10/15 19:28:54;;;;;;;4.67;3.50;;;11.20;81.60;;;;;;10568013;28;20240;-78
2023/10/15 19:34:18;;;;;;;4.43;2.57;;;11.00;83.00;;;;;;10533305;28;20200;-77
2023/10/15 19:39:41;;;;;;;4.80;2.13;;;11.00;83.30;;;;;;10550783;28;20225;-77
2023/10/15 19:45:04;;;;;;;2.70;2.50;;;11.00;83.10;;;;;;10573600;28;20278;-77
2023/10/15 19:50:27;;;;;;;3.10;2.77;;;10.90;83.50;;;;;;10535833;28;20235;-77
2023/10/15 19:55:50;;;;;;;3.93;3.57;;;10.90;83.30;;;;;;10544731;28;20196;-77
2023/10/15 20:01:12;;;;;;;3.40;2.93;;;10.80;82.90;;;;;;10539038;28;20279;-77
2023/10/15 20:06:36;;;;;;;5.07;3.17;;;10.80;82.80;;;;;;10545658;28;20238;-77
2023/10/15 20:11:58;;;;;;;3.30;2.70;;;10.80;82.60;;;;;;10565867;28;20201;-77
2023/10/15 20:17:21;;;;;;;3.40;2.67;;;10.70;82.80;;;;;;10582289;28;20216;-78
2023/10/15 20:22:45;;;;;;;3.10;2.90;;;10.70;83.90;;;;;;10539282;28;20731;-76
2023/10/15 20:28:10;;;;;;;5.93;4.67;;;10.70;83.50;;;;;;10556242;28;20591;-77
2023/10/15 20:33:32;;;;;;;14.10;9.20;;;10.70;83.60;;;;;;10557955;28;20218;-77
2023/10/15 20:38:56;;;;;;;5.20;4.70;;;10.70;83.30;;;;;;10558947;28;20228;-77
2023/10/15 20:44:19;;;;;;;4.70;3.87;;;10.60;84.10;;;;;;10563069;28;20240;-77
2023/10/15 20:49:41;;;;;;;8.90;6.80;;;10.60;84.50;;;;;;10557177;28;20239;-78
2023/10/15 20:55:06;;;;;;;7.77;6.00;;;10.60;83.90;;;;;;10557264;28;20225;-77
2023/10/15 21:00:29;;;;;;;9.43;7.40;;;10.50;85.20;;;;;;10561804;28;20226;-76
2023/10/15 21:05:51;;;;;;;10.30;8.70;;;10.50;85.50;;;;;;10535892;28;20238;-77
2023/10/15 21:11:15;;;;;;;6.70;5.93;;;10.50;84.60;;;;;;10548568;28;20204;-79
2023/10/15 21:16:39;;;;;;;5.70;4.90;;;10.40;84.80;;;;;;10563649;28;20231;-77
2023/10/15 21:22:01;;;;;;;5.03;4.53;;;10.40;84.80;;;;;;10548442;28;20229;-77
2023/10/15 21:27:24;;;;;;;3.83;3.13;;;10.30;84.70;;;;;;10554722;28;20311;-79
2023/10/15 21:32:47;;;;;;;4.90;3.53;;;10.20;85.70;;;;;;10551412;28;20545;-77
2023/10/15 21:38:09;;;;;;;3.43;3.13;;;10.20;86.00;;;;;;10552197;28;20219;-79
2023/10/15 21:43:32;;;;;;;3.73;3.13;;;10.10;85.70;;;;;;10552644;28;20294;-78
2023/10/15 21:48:55;;;;;;;5.97;3.37;;;10.10;85.90;;;;;;10553429;28;20240;-79
2023/10/15 21:54:18;;;;;;;3.50;3.20;;;10.00;85.80;;;;;;10554594;28;20282;-79
2023/10/15 21:59:42;;;;;;;5.70;2.80;;;10.00;86.60;;;;;;10561906;28;20224;-79
2023/10/15 22:05:05;;;;;;;2.60;2.40;;;10.10;87.10;;;;;;10571043;28;20235;-78
2023/10/15 22:10:28;;;;;;;3.30;2.70;;;10.10;85.70;;;;;;10567563;28;20231;-78
2023/10/15 22:15:52;;;;;;;3.20;3.00;;;10.00;85.60;;;;;;10556834;28;20200;-79
2023/10/15 22:21:15;;;;;;;3.57;3.27;;;9.80;87.80;;;;;;10561277;28;20200;-78
2023/10/15 22:26:39;;;;;;;3.57;3.27;;;9.80;88.40;;;;;;10564706;28;20295;-78
2023/10/15 22:32:05;;;;;;;3.53;3.23;;;9.70;88.40;;;;;;10571203;28;20676;-78
2023/10/15 22:37:28;;;;;;;2.90;2.70;;;9.60;88.70;;;;;;10573255;28;20215;-79
2023/10/15 22:42:50;;;;;;;3.27;3.00;;;9.60;89.10;;;;;;10560930;28;20713;-78
2023/10/15 22:48:15;;;;;;;4.33;3.10;;;9.60;88.50;;;;;;10556497;28;20227;-79
2023/10/15 22:53:39;;;;;;;3.43;3.07;;;9.60;89.40;;;;;;10571793;28;20278;-78
2023/10/15 22:59:01;;;;;;;2.80;2.60;;;9.60;89.70;;;;;;10577822;28;20231;-78
2023/10/15 23:04:26;;;;;;;3.83;2.57;;;9.60;89.70;;;;;;10578726;28;20775;-79
2023/10/15 23:09:48;;;;;;;4.10;3.37;;;9.70;89.80;;;;;;10566191;28;20238;-77
2023/10/15 23:15:16;;;;;;;2.87;2.67;;;9.70;89.60;;;;;;10581334;28;20712;-78
2023/10/15 23:20:40;;;;;;;4.27;2.97;;;9.70;88.70;;;;;;10558143;28;20219;-78
2023/10/15 23:26:03;;;;;;;3.50;3.10;;;9.70;88.70;;;;;;10565532;28;20306;-77
2023/10/15 23:31:28;;;;;;;3.33;2.80;;;9.60;88.90;;;;;;10585069;28;20205;-78
2023/10/15 23:36:51;;;;;;;2.63;2.43;;;9.60;88.70;;;;;;10563335;28;20723;-78
2023/10/15 23:42:14;;;;;;;3.80;2.70;;;9.50;88.70;;;;;;10578102;28;20255;-78
2023/10/15 23:47:40;;;;;;;3.43;2.53;;;9.40;89.40;;;;;;10578846;28;20243;-78
2023/10/15 23:53:04;;;;;;;2.70;2.50;;;9.40;89.10;;;;;;10572771;28;20308;-78
2023/10/15 23:58:26;;;;;;;4.57;2.73;;;9.40;89.90;;;;;;10576458;28;20312;-78
